Flight Track Log - Related Links

Times and Time Zones

All times are in EDT time to prevent confusion due to time zone crossing. See the TRS265 flight status page for this flight to view local times or setup timezone preferences in your user account.

Time Position Orientation Groundspeed Altitude Reporting Facility
EDT Latitude Longitude Course Direction KTS MPH feet Rate Location/Type
Sun 01:17:17 PM 33.6333 -84.3833 168° South 186 214 2,700  Level Atlanta TRACON
Sun 01:18:23 PM 33.6000 -84.2833 112° Southeast 263 303 4,100 1,857 Climbing Atlanta TRACON
Sun 01:19:23 PM 33.5333 -84.2833 180° South 260 299 6,600 2,400 Climbing Atlanta TRACON
Sun 01:20:23 PM 33.4667 -84.2833 180° South 270 311 8,900 1,636 Climbing Atlanta TRACON
Sun 01:22:08 PM 33.3286 -84.2625 173° South 294 338 11,100 1,491 Climbing Atlanta Center
Sun 01:23:00 PM 33.0727 -84.1890 168° South  Level FlightAware Approximate
Sun 01:23:08 PM 33.2325 -84.2375 168° South 330 380 13,000  Level Atlanta Center
Sun 01:24:08 PM 33.1367 -84.2125 168° South 354 407 14,900 1,650 Climbing Atlanta Center
Sun 01:25:08 PM 33.0239 -84.1800 166° South 366 421 16,300 1,500 Climbing Atlanta Center
Sun 01:26:08 PM 32.9239 -84.1428 163° South 374 430 17,900 1,800 Climbing Atlanta Center
Sun 01:27:08 PM 32.8153 -84.1006 162° South 391 450 19,900 1,750 Climbing Atlanta Center
Sun 01:28:08 PM 32.7089 -84.0511 159° South 405 466 21,400 1,400 Climbing Atlanta Center
Sun 01:29:08 PM 32.5942 -84.0067 162° South 416 479 22,700 1,400 Climbing Atlanta Center
Sun 01:30:08 PM 32.4792 -83.9600 161° South 430 495 24,200 1,350 Climbing Atlanta Center
Sun 01:31:08 PM 32.3561 -83.9111 161° South 448 516 25,400 1,027 Climbing Atlanta Center
Sun 01:33:15 PM 32.1069 -83.8075 161° South 468 539 27,400 963 Climbing Jacksonville Center
Sun 01:34:15 PM 31.9797 -83.7572 161° South 473 544 28,400 1,100 Climbing Jacksonville Center
Sun 01:35:15 PM 31.8403 -83.6997 161° South 484 557 29,600 1,100 Climbing Jacksonville Center
Sun 01:36:15 PM 31.7114 -83.6400 158° South 489 563 30,600 950 Climbing Jacksonville Center
Sun 01:37:15 PM 31.5861 -83.5975 164° South 499 574 31,500 900 Climbing Jacksonville Center
Sun 01:38:15 PM 31.4444 -83.5428 162° South 499 574 32,400 750 Climbing Jacksonville Center
Sun 01:39:15 PM 31.3111 -83.4908 162° South 499 574 33,000 300 Climbing Jacksonville Center
Sun 01:40:15 PM 31.1842 -83.4414 162° South 499 574 33,000  Level Jacksonville Center
Sun 01:41:15 PM 31.0506 -83.3872 161° South 499 574 33,000  Level Jacksonville Center
Sun 01:42:15 PM 30.9214 -83.3358 161° South 499 574 33,000  Level Jacksonville Center
Sun 01:43:15 PM 30.7942 -83.2867 162° South 499 574 33,000  Level Jacksonville Center
Sun 01:44:15 PM 30.6669 -83.2233 157° South 499 574 33,000  Level Jacksonville Center
Sun 01:45:15 PM 30.5397 -83.1578 156° South 499 574 33,000 -50 Level Jacksonville Center
Sun 01:46:15 PM 30.4106 -83.0925 156° South 499 574 32,900  Descending Jacksonville Center
Sun 01:47:15 PM 30.2958 -83.0081 148° Southeast 499 574 33,000 50 Climbing Jacksonville Center
Sun 01:48:15 PM 30.1706 -82.9383 154° Southeast 499 574 33,000  Level Jacksonville Center
Sun 01:49:15 PM 30.0431 -82.8806 159° South 492 566 33,000  Level Jacksonville Center
Sun 01:50:15 PM 29.9117 -82.8206 158° South 497 572 33,000  Level Jacksonville Center
Sun 01:51:15 PM 29.7822 -82.7608 158° South 497 572 33,000  Level Jacksonville Center
Sun 01:52:15 PM 29.6547 -82.7061 160° South 497 572 33,000  Level Jacksonville Center
Sun 01:53:15 PM 29.5208 -82.6419 157° South 502 578 33,000  Level Jacksonville Center
Sun 01:54:15 PM 29.4061 -82.5875 158° South 510 587 33,000  Level Jacksonville Center
Sun 01:55:15 PM 29.2764 -82.5283 158° South 510 587 33,000 -50 Level Jacksonville Center
Sun 01:56:15 PM 29.1428 -82.4694 159° South 510 587 32,900  Descending Jacksonville Center
Sun 01:57:15 PM 29.0069 -82.4486 172° South 504 580 33,000 50 Climbing Jacksonville Center
Sun 01:58:15 PM 28.8714 -82.4564 183° South 492 566 33,000  Level Jacksonville Center
Sun 01:59:15 PM 28.7336 -82.4664 184° South 492 566 33,000  Level Jacksonville Center
Sun 02:00:15 PM 28.5981 -82.4764 184° South 497 572 33,000  Level Jacksonville Center
Sun 02:01:15 PM 28.4622 -82.4817 182° South 497 572 33,000  Level Jacksonville Center
Sun 02:03:41 PM 28.1250 -82.5014 183° South 507 583 33,000  Level Miami Center
Sun 02:04:41 PM 27.9872 -82.5086 183° South 500 575 33,000  Level Miami Center
Sun 02:05:41 PM 27.8592 -82.4742 167° South 489 563 33,000  Level Miami Center
Sun 02:06:41 PM 27.7150 -82.4272 164° South 494 568 33,000  Level Miami Center
Sun 02:07:41 PM 27.5936 -82.3789 161° South 499 574 33,000 -250 Level Miami Center
Sun 02:08:41 PM 27.4619 -82.3306 162° South 499 574 32,500 -700 Descending Miami Center
Sun 02:09:41 PM 27.3178 -82.2794 163° South 494 568 31,600 -800 Descending Miami Center
Sun 02:10:41 PM 27.1881 -82.2314 162° South 494 568 30,900 -750 Descending Miami Center
Sun 02:11:41 PM 27.0583 -82.1833 162° South 499 574 30,100 -850 Descending Miami Center
Sun 02:12:41 PM 26.9411 -82.1431 163° South 492 566 29,200 -850 Descending Miami Center
Sun 02:13:41 PM 26.8172 -82.1003 163° South 480 552 28,400 -800 Descending Miami Center
Sun 02:14:41 PM 26.6958 -82.0531 161° South 467 537 27,600 -1,300 Descending Miami Center
Sun 02:15:41 PM 26.5783 -82.0131 163° South 459 528 25,800 -1,500 Descending Miami Center
Sun 02:16:41 PM 26.4675 -81.9594 157° South 447 514 24,600 -1,700 Descending Miami Center
Sun 02:17:41 PM 26.4072 -81.8317 118° Southeast 405 466 22,400 -2,050 Descending Miami Center
Sun 02:18:41 PM 26.3653 -81.7139 112° Southeast 405 466 20,500 -1,800 Descending Miami Center
Sun 02:19:41 PM 26.3292 -81.6058 110° East 380 437 18,800 -1,500 Descending Miami Center
Sun 02:20:41 PM 26.2944 -81.5142 113° Southeast 363 418 17,500 -1,550 Descending Miami Center
Sun 02:21:41 PM 26.2622 -81.4133 110° East 346 398 15,700 -1,800 Descending Miami Center
Sun 02:22:41 PM 26.2236 -81.3053 112° Southeast 346 398 13,900 -1,800 Descending Miami Center
Sun 02:23:41 PM 26.1911 -81.2092 111° Southeast 335 386 12,100 -1,650 Descending Miami Center
Sun 02:24:41 PM 26.1583 -81.1200 112° Southeast 323 372 10,600 -1,417 Descending Miami Center
Sun 02:24:53 PM 26.1503 -81.1014 116° Southeast 305 351 10,400 -1,400 Descending Miami Center
Sun 02:25:41 PM 26.1292 -81.0381 110° East 300 345 9,200 -1,475 Descending Miami Center
Sun 02:25:54 PM 26.1214 -81.0239 121° Southeast 278 320 8,900 -1,059 Descending Miami Center
Sun 02:26:49 PM 26.0986 -80.9444 108° East 286 329 8,000 -561 Descending Miami Center
Sun 02:27:41 PM 26.0903 -80.8681 97° East 284 327 7,900  Descending Miami Center
Sun 02:27:56 PM 26.0822 -80.8492 115° Southeast 281 323 8,000 -300 Climbing Miami Center
Sun 02:28:41 PM 26.0758 -80.7842 96° East 284 327 7,600 -787 Descending Miami Center
Sun 02:28:57 PM 26.0742 -80.7611 95° East 280 322 7,200 -1,000 Descending Miami Center
Sun 02:29:41 PM 26.0758 -80.7011 88° East 274 315 6,600 -677 Descending Miami Center
Sun 02:29:59 PM 26.0742 -80.6800 95° East 251 289 6,500 -600 Descending Miami Center
Sun 02:30:41 PM 26.0778 -80.6294 85° East 254 292 6,000 -448 Descending Miami Center
Sun 02:31:06 PM 26.0764 -80.6017 93° East 225 259 6,000 -100 Level Miami Center
Sun 02:31:41 PM 26.0794 -80.5600 85° East 230 265 5,900  Descending Miami Center
Sun 02:32:01 PM 26.0758 -80.5367 100° East 226 260 6,000 -300 Climbing Miami Center
Sun 02:32:41 PM 26.0792 -80.4906 85° East 225 259 5,600 -787 Descending Miami Center
Sun 02:33:02 PM 26.0756 -80.4675 100° East 222 255 5,200 -1,300 Descending Miami Center
Sun 02:33:41 PM 26.0786 -80.4211 86° East 220 253 4,300 -1,180 Descending Miami Center
Sun 02:34:03 PM 26.0772 -80.4003 94° East 203 234 4,000 -1,000 Descending Miami Center
Sun 02:34:41 PM 26.0781 -80.3633 89° East 209 241 3,300 -984 Descending Miami Center
Sun 02:35:04 PM 26.0742 -80.3447 103° East 177 204 3,000 -847 Descending Miami Center
Sun 02:36:06 PM 26.0736 -80.2892 91° East 170 196 2,100 -878 Descending Miami Center
Sun 02:37:07 PM 26.0747 -80.2408 89° East 154 177 1,200 -750 Descending Miami Center
Sun 02:38:14 PM 26.0736 -80.1944 92° East 125 144 500 -627 Descending Miami Center

Login

Don't have an account? Register now (free) for customized features, flight alerts, and more!